Latest Weather Observations for Singleton (Defence)

IDN60801

Issued at 1:35 am EST Wednesday 28 June 2017 (issued every 30 minutes, with the page automatically refreshed every 10 minutes)

About weather observations | Map of weather stations | Latest weather observations for NSW | Other Formats
Station Details ID: 061430 Name: SINGLETON (DEFENCE) Lat: -32.70 Lon: 151.16 Height: 125.0 m
Data from the previous 72 hours. | See also: Recent months for locations in New South Wales
Date/Time
EST
Temp
°C
App
Temp
°C
Dew
Point
°C
Rel
Hum
%
Delta-T
°C
Wind Press
QNH
hPa
Press
MSL
hPa
Rain since
9am
mm
Dir  Spd
km/h
Gust
km/h
Spd
kts
Gust
kts
28/01:30am 10.5 8.8 8.3 86 1.1 S 7 9 4 5 - - 0.0
28/01:00am 10.5 9.7 8.1 85 1.2 SSE 2 6 1 3 - - 0.0
28/12:30am 10.1 8.5 7.9 86 1.1 SSE 6 7 3 4 - - 0.0
28/12:00am 10.3 8.7 7.9 85 1.2 SSE 6 7 3 4 - - 0.0
 
Date/Time
EST
Temp
°C
App
Temp
°C
Dew
Point
°C
Rel
Hum
%
Delta-T
°C
Wind Press
QNH
hPa
Press
MSL
hPa
Rain since
9am
mm
Dir  Spd
km/h
Gust
km/h
Spd
kts
Gust
kts
27/11:30pm 11.3 10.1 8.0 80 1.6 SSE 4 6 2 3 - - 0.0
27/11:00pm 11.4 9.5 7.7 78 1.8 SSE 7 7 4 4 - - 0.0
27/10:30pm 10.9 8.6 7.6 80 1.6 SSE 9 11 5 6 - - 0.0
27/10:00pm 10.8 9.0 7.3 79 1.7 SSE 6 6 3 3 - - 0.0
27/09:30pm 10.6 7.9 7.3 80 1.6 SSE 11 13 6 7 - - 0.0
27/09:00pm 11.0 8.4 7.9 81 1.5 SSE 11 13 6 7 - - 0.0
27/08:30pm 10.7 9.0 7.4 80 1.6 SE 6 9 3 5 - - 0.0
27/08:00pm 11.2 9.2 7.3 77 1.9 SE 7 9 4 5 - - 0.0
27/07:30pm 11.8 9.9 7.5 75 2.1 SE 7 9 4 5 - - 0.0
27/07:00pm 11.5 9.3 8.0 79 1.7 SE 9 11 5 6 - - 0.0
27/06:30pm 11.3 9.6 8.2 81 1.5 SE 7 11 4 6 - - 0.0
27/06:00pm 11.9 10.3 7.8 76 2.0 SE 6 7 3 4 - - 0.0
27/05:30pm 12.5 10.7 8.0 74 2.2 SE 7 9 4 5 - - 0.0
27/05:00pm 13.2 11.4 7.9 70 2.6 SE 7 9 4 5 - - 0.0
27/04:30pm 14.0 12.2 8.0 67 3.0 SE 7 9 4 5 - - 0.0
27/04:00pm 14.2 12.3 7.7 65 3.2 SE 7 9 4 5 - - 0.0
27/03:30pm 14.7 12.4 7.3 61 3.7 SE 9 11 5 6 - - 0.0
27/03:00pm 15.2 13.2 7.3 59 3.9 SW 7 9 4 5 - - 0.0
27/02:30pm 15.4 13.5 6.9 57 4.2 SW 6 7 3 4 - - 0.0
27/02:00pm 15.5 13.7 7.0 57 4.2 SW 6 7 3 4 - - 0.0
27/01:30pm 15.6 14.9 6.9 56 4.3 CALM 0 4 0 2 - - 0.0
27/01:00pm 15.9 14.8 6.9 55 4.5 SW 2 6 1 3 - - 0.0
27/12:30pm 16.0 14.9 6.7 54 4.6 SW 2 6 1 3 - - 0.0
27/12:00pm 15.4 14.4 7.2 58 4.1 SW 2 6 1 3 - - 0.0
27/11:30am 14.6 13.2 7.2 61 3.7 SW 4 7 2 4 - - 0.0
27/11:00am 13.4 12.5 6.0 61 3.5 CALM 0 2 0 1 - - 0.0
27/10:30am 13.4 11.9 6.7 64 3.2 SW 4 7 2 4 - - 0.0
27/10:00am 11.6 10.5 6.9 73 2.3 SW 2 6 1 3 - - 0.0
27/09:30am 10.0 8.7 6.0 76 1.9 SW 2 6 1 3 - - 0.0
27/09:00am 8.2 6.9 5.8 85 1.1 SW 2 4 1 2 - - 0.0
27/08:30am 6.5 5.4 5.0 90 0.7 CALM 0 0 0 0 - - 0.0
27/08:00am 4.1 2.2 3.1 93 0.4 SW 2 4 1 2 - - 0.0
27/07:30am 4.1 1.9 3.4 95 0.3 SW 4 6 2 3 - - 0.0
27/07:00am 4.1 2.7 3.5 96 0.2 CALM 0 0 0 0 - - 0.0
27/06:30am 3.9 2.0 2.7 92 0.5 SW 2 4 1 2 - - 0.0
27/06:00am 5.4 4.1 4.2 92 0.5 CALM 0 2 0 1 - - 0.0
27/05:30am 5.3 2.9 4.1 92 0.5 SW 6 9 3 5 - - 0.0
27/05:00am 5.7 2.7 4.0 89 0.7 SW 9 11 5 6 - - 0.0
27/04:30am 5.6 3.2 4.1 90 0.6 SW 6 7 3 4 - - 0.0
27/04:00am 5.9 3.5 4.1 88 0.8 SW 6 7 3 4 - - 0.0
27/03:30am 6.2 4.6 4.5 89 0.7 SW 2 4 1 2 - - 0.0
27/03:00am 6.4 4.8 4.6 88 0.8 SW 2 4 1 2 - - 0.0
27/02:30am 6.4 4.4 4.6 88 0.8 SW 4 4 2 2 - - 0.0
27/02:00am 6.5 3.6 4.5 87 0.9 SW 9 11 5 6 - - 0.0
27/01:30am 6.3 3.3 4.1 86 0.9 SSW 9 11 5 6 - - 0.0
27/01:00am 6.7 3.8 4.4 85 1.0 SW 9 11 5 6 - - 0.0
27/12:30am 6.4 3.5 4.9 90 0.7 WSW 9 9 5 5 - - 0.0
27/12:00am 6.5 4.0 4.5 87 0.9 WSW 7 9 4 5 - - 0.0
 
Date/Time
EST
Temp
°C
App
Temp
°C
Dew
Point
°C
Rel
Hum
%
Delta-T
°C
Wind Press
QNH
hPa
Press
MSL
hPa
Rain since
9am
mm
Dir  Spd
km/h
Gust
km/h
Spd
kts
Gust
kts
26/11:30pm 6.9 4.4 4.9 87 0.9 WSW 7 7 4 4 - - 0.0
26/11:00pm 7.8 5.4 5.1 83 1.2 WSW 7 9 4 5 - - 0.0
26/10:30pm 9.7 8.3 5.3 74 2.0 WSW 2 4 1 2 - - 0.0
26/10:00pm 8.0 5.5 4.9 81 1.4 W 7 9 4 5 - - 0.0
26/09:30pm 8.7 6.2 4.9 77 1.7 W 7 9 4 5 - - 0.0
26/09:00pm 9.2 6.4 5.0 75 1.9 WSW 9 13 5 7 - - 0.0
26/08:30pm 10.4 8.8 4.5 67 2.7 SSE 2 4 1 2 - - 0.0
26/08:00pm 11.3 9.7 4.5 63 3.1 SSE 2 6 1 3 - - 0.0
26/07:30pm 11.5 9.1 4.3 61 3.3 SSE 6 7 3 4 - - 0.0
26/07:00pm 11.7 8.8 4.4 61 3.3 SSE 9 11 5 6 - - 0.0
26/06:30pm 12.1 9.3 5.0 62 3.3 SSE 9 13 5 7 - - 0.0
26/06:00pm 12.2 9.3 4.9 61 3.4 SSE 9 11 5 6 - - 0.0
26/05:30pm 12.8 10.0 5.0 59 3.6 ESE 9 11 5 6 - - 0.0
26/05:00pm 15.0 12.4 4.4 49 5.0 WNW 7 9 4 5 - - 0.0
26/04:30pm 16.3 14.3 4.4 45 5.6 WNW 4 6 2 3 - - 0.0
26/04:00pm 16.8 14.3 3.5 41 6.2 WNW 6 9 3 5 - - 0.0
26/03:30pm 18.3 15.8 4.5 40 6.6 NNW 7 11 4 6 - - 0.0
26/03:00pm 17.8 15.3 3.7 39 6.6 W 6 9 3 5 - - 0.0
26/02:30pm 18.4 15.5 4.6 40 6.6 NNW 9 13 5 7 - - 0.0
26/02:00pm 18.7 16.3 4.1 38 7.0 NW 6 13 3 7 - - 0.0
26/01:30pm 18.0 15.3 3.5 38 6.8 W 7 17 4 9 - - 0.0
26/01:00pm 17.3 13.6 2.5 37 6.8 WSW 11 15 6 8 - - 0.0
26/12:30pm 17.3 15.0 4.6 43 6.1 NW 6 13 3 7 - - 0.0
26/12:00pm 16.6 13.6 4.3 44 5.8 WNW 9 17 5 9 - - 0.0
26/11:30am 15.9 13.1 5.2 49 5.1 W 9 17 5 9 - - 0.0
26/11:00am 15.6 12.9 5.8 52 4.7 WNW 9 13 5 7 - - 0.0
26/10:30am 14.8 12.7 6.6 58 4.0 WNW 7 13 4 7 - - 0.0
26/10:00am 13.3 11.5 7.3 67 2.9 WNW 6 11 3 6 - - 0.0
26/09:30am 11.3 9.6 7.4 77 1.9 WNW 6 9 3 5 - - 0.0
26/09:00am 10.0 7.6 6.9 81 1.5 WNW 9 11 5 6 - - 0.0
26/08:30am 8.4 5.8 6.2 86 1.0 WNW 9 13 5 7 - - 0.0
26/08:00am 6.5 3.7 5.0 90 0.7 WNW 9 11 5 6 - - 0.0
26/07:30am 6.1 3.3 5.1 93 0.4 WSW 9 13 5 7 - - 0.0
26/07:00am 5.6 2.7 4.9 95 0.3 WSW 9 11 5 6 - - 0.0
26/06:30am 5.4 2.5 4.7 95 0.3 SW 9 11 5 6 - - 0.0
26/06:00am 5.9 3.6 5.0 94 0.4 SW 6 7 3 4 - - 0.0
26/05:30am 6.1 3.9 5.1 93 0.4 SW 6 7 3 4 - - 0.0
26/05:00am 6.5 4.1 5.1 91 0.6 SW 7 9 4 5 - - 0.0
26/04:30am 6.5 4.3 5.3 92 0.5 SW 6 9 3 5 - - 0.0
26/04:00am 5.7 2.8 4.5 92 0.5 SW 9 11 5 6 - - 0.0
26/03:30am 7.0 4.8 5.2 88 0.8 SW 6 7 3 4 - - 0.0
26/03:00am 6.4 2.8 5.2 92 0.5 W 13 15 7 8 - - 0.0
26/02:30am 7.7 5.9 5.5 86 1.0 SW 4 11 2 6 - - 0.0
26/02:00am 7.7 5.5 5.5 86 1.0 SW 6 7 3 4 - - 0.0
26/01:30am 8.8 6.8 6.1 83 1.2 WSW 6 9 3 5 - - 0.0
26/01:00am 7.5 5.3 6.0 90 0.7 W 7 9 4 5 - - 0.0
26/12:30am 8.4 5.8 5.9 84 1.1 W 9 9 5 5 - - 0.0
26/12:00am 9.2 7.7 6.6 84 1.2 W 4 6 2 3 - - 0.0
 
Date/Time
EST
Temp
°C
App
Temp
°C
Dew
Point
°C
Rel
Hum
%
Delta-T
°C
Wind Press
QNH
hPa
Press
MSL
hPa
Rain since
9am
mm
Dir  Spd
km/h
Gust
km/h
Spd
kts
Gust
kts
25/11:30pm 9.3 7.8 6.6 83 1.3 W 4 6 2 3 - - 0.0
25/11:00pm 9.5 7.6 6.8 83 1.3 W 6 7 3 4 - - 0.0
25/10:30pm 9.8 7.0 6.9 82 1.4 W 11 11 6 6 - - 0.0
25/10:00pm 10.2 7.1 7.1 81 1.5 W 13 13 7 7 - - 0.0
25/09:30pm 11.4 9.9 6.9 74 2.2 SW 4 6 2 3 - - 0.0
25/09:00pm 11.7 10.4 6.2 69 2.6 SW 2 4 1 2 - - 0.0
25/08:30pm 12.0 9.8 6.3 68 2.7 SW 7 9 4 5 - - 0.0
25/08:00pm 12.1 10.0 6.8 70 2.5 SW 7 9 4 5 - - 0.0
25/07:30pm 13.6 10.9 7.2 65 3.1 SW 11 11 6 6 - - 0.0
25/07:00pm 14.2 12.4 7.3 63 3.4 SW 6 7 3 4 - - 0.0
25/06:30pm 14.5 12.7 7.1 61 3.6 SW 6 7 3 4 - - 0.0
25/06:00pm 15.3 12.4 6.6 56 4.3 W 11 11 6 6 - - 0.0
25/05:30pm 15.9 13.4 6.6 54 4.6 W 9 9 5 5 - - 0.0
25/05:00pm 16.4 14.3 6.5 52 4.9 WNW 7 9 4 5 - - 0.0
25/04:30pm 18.2 15.7 6.4 46 5.9 WNW 9 13 5 7 - - 0.0
25/04:00pm 18.6 14.5 6.1 44 6.2 WNW 17 24 9 13 - - 0.0
25/03:30pm 19.1 15.1 6.6 44 6.3 WNW 17 26 9 14 - - 0.0
25/03:00pm 19.3 14.9 6.4 43 6.5 WNW 19 26 10 14 - - 0.0
25/02:30pm 18.8 14.1 6.0 43 6.4 NW 20 26 11 14 - - 0.0
25/02:00pm 18.6 14.1 6.1 44 6.2 NW 19 26 10 14 - - 0.0
25/01:30pm 19.1 14.6 5.9 42 6.6 WNW 19 32 10 17 - - 0.0
25/01:00pm 18.5 13.8 5.0 41 6.6 NW 19 30 10 16 - - 0.0
25/12:30pm 18.2 13.4 5.8 44 6.1 NW 20 28 11 15 - - 0.0
25/12:00pm 17.3 14.3 6.2 48 5.5 NW 11 17 6 9 - - 0.0
25/11:30am 16.5 13.9 6.3 51 5.0 NW 9 15 5 8 - - 0.0
25/11:00am 15.8 13.2 6.3 53 4.6 NW 9 17 5 9 - - 0.0
25/10:30am 15.1 13.0 6.7 57 4.1 WNW 7 13 4 7 - - 0.0
25/10:00am 14.1 11.4 5.7 57 4.0 W 9 13 5 7 - - 0.0
25/09:30am 13.3 11.0 5.7 60 3.6 WSW 7 11 4 6 - - 0.0
25/09:00am 10.8 9.2 6.2 73 2.2 WSW 4 7 2 4 - - 0.0
25/08:30am 9.4 7.7 5.8 78 1.7 WSW 4 6 2 3 - - 0.0
25/08:00am 9.7 7.4 5.5 75 1.9 WSW 7 11 4 6 - - 0.0
25/07:30am 8.8 5.7 5.4 79 1.5 WSW 11 13 6 7 - - 0.0
25/07:00am 8.0 5.6 5.3 83 1.2 W 7 9 4 5 - - 0.0
25/06:30am 7.6 5.8 5.2 85 1.1 W 4 9 2 5 - - 0.0
25/06:00am 8.1 5.3 5.2 82 1.3 W 9 11 5 6 - - 0.0
25/05:30am 8.1 5.7 5.2 82 1.3 W 7 9 4 5 - - 0.0
25/05:00am 8.6 6.7 5.0 78 1.6 W 4 4 2 2 - - 0.0
25/04:30am 8.6 6.3 4.8 77 1.7 W 6 7 3 4 - - 0.0
25/04:00am 8.3 6.4 4.9 79 1.5 W 4 6 2 3 - - 0.0
25/03:30am 7.8 5.9 4.9 82 1.3 W 4 4 2 2 - - 0.0
25/03:00am 7.8 5.4 5.1 83 1.2 W 7 9 4 5 - - 0.0
25/02:30am 8.0 5.7 4.8 80 1.4 W 6 7 3 4 - - 0.0
25/02:00am 8.2 5.7 4.6 78 1.6 W 7 9 4 5 - - 0.0

Other Formats:

Comma delimited format used in spreadsheet applications
http://www.bom.gov.au/fwo/IDN60801/IDN60801.99738.axf

JavaScript Object Notation format (JSON) in row-major order
http://www.bom.gov.au/fwo/IDN60801/IDN60801.99738.json